sensor_id;sensor_type;location;lat;lon;timestamp;pressure;altitude;pressure_sealevel;temperature;humidity
67457;BME280;54319;52.038;4.640;2023-07-09T00:02:11;101747.34;;;22.97;82.53
67457;BME280;54319;52.038;4.640;2023-07-09T00:04:38;101736.19;;;22.87;83.17
67457;BME280;54319;52.038;4.640;2023-07-09T00:07:14;101752.88;;;22.87;82.64
67457;BME280;54319;52.038;4.640;2023-07-09T00:09:42;101753.69;;;22.82;83.04
67457;BME280;54319;52.038;4.640;2023-07-09T00:12:12;101756.78;;;22.86;82.32
67457;BME280;54319;52.038;4.640;2023-07-09T00:14:39;101755.94;;;22.86;82.57
67457;BME280;54319;52.038;4.640;2023-07-09T00:17:09;101762.03;;;22.82;82.44
67457;BME280;54319;52.038;4.640;2023-07-09T00:19:37;101763.44;;;22.80;83.04
67457;BME280;54319;52.038;4.640;2023-07-09T00:22:10;101731.63;;;22.55;82.92
67457;BME280;54319;52.038;4.640;2023-07-09T00:24:43;101775.06;;;22.72;83.15
67457;BME280;54319;52.038;4.640;2023-07-09T00:27:11;101773.97;;;22.73;82.92
67457;BME280;54319;52.038;4.640;2023-07-09T00:29:38;101775.66;;;22.74;83.35
67457;BME280;54319;52.038;4.640;2023-07-09T00:32:10;101776.47;;;22.74;83.22
67457;BME280;54319;52.038;4.640;2023-07-09T00:34:37;101779.53;;;22.73;82.58
67457;BME280;54319;52.038;4.640;2023-07-09T00:37:10;101772.88;;;22.74;82.34
67457;BME280;54319;52.038;4.640;2023-07-09T00:39:36;101764.22;;;22.65;82.06
67457;BME280;54319;52.038;4.640;2023-07-09T00:42:10;101773.13;;;22.72;82.34
67457;BME280;54319;52.038;4.640;2023-07-09T00:44:40;101772.28;;;22.66;82.96
67457;BME280;54319;52.038;4.640;2023-07-09T00:47:18;101775.91;;;22.67;82.37
67457;BME280;54319;52.038;4.640;2023-07-09T00:49:49;101778.38;;;22.63;83.22
67457;BME280;54319;52.038;4.640;2023-07-09T00:52:26;101770.59;;;22.60;82.80
67457;BME280;54319;52.038;4.640;2023-07-09T00:54:59;101779.78;;;22.61;83.01
67457;BME280;54319;52.038;4.640;2023-07-09T00:57:30;101773.09;;;22.62;82.80
67457;BME280;54319;52.038;4.640;2023-07-09T01:00:00;101775.31;;;22.60;82.75
67457;BME280;54319;52.038;4.640;2023-07-09T01:02:32;101774.47;;;22.59;82.74
67457;BME280;54319;52.038;4.640;2023-07-09T01:05:01;101771.13;;;22.57;82.97
67457;BME280;54319;52.038;4.640;2023-07-09T01:07:28;101771.13;;;22.57;82.91
67457;BME280;54319;52.038;4.640;2023-07-09T01:09:55;101775.25;;;22.49;83.75
67457;BME280;54319;52.038;4.640;2023-07-09T01:12:22;101783.88;;;22.48;83.68
67457;BME280;54319;52.038;4.640;2023-07-09T01:14:52;101766.84;;;22.44;83.87
67457;BME280;54319;52.038;4.640;2023-07-09T01:17:20;101757.34;;;22.30;84.06
67457;BME280;54319;52.038;4.640;2023-07-09T01:19:50;101779.84;;;22.33;85.13
67457;BME280;54319;52.038;4.640;2023-07-09T01:22:20;101777.34;;;22.26;85.05
67457;BME280;54319;52.038;4.640;2023-07-09T01:24:54;101788.47;;;22.26;85.49
67457;BME280;54319;52.038;4.640;2023-07-09T01:27:24;101787.59;;;22.26;85.48
67457;BME280;54319;52.038;4.640;2023-07-09T01:29:53;101794.84;;;22.27;85.08
67457;BME280;54319;52.038;4.640;2023-07-09T01:32:20;101776.44;;;22.16;85.51
67457;BME280;54319;52.038;4.640;2023-07-09T01:34:49;101800.94;;;22.24;85.23
67457;BME280;54319;52.038;4.640;2023-07-09T01:37:21;101758.50;;;21.96;85.12
67457;BME280;54319;52.038;4.640;2023-07-09T01:39:48;101795.63;;;22.17;85.33
67457;BME280;54319;52.038;4.640;2023-07-09T01:42:15;101797.00;;;22.15;85.86
67457;BME280;54319;52.038;4.640;2023-07-09T01:44:42;101794.78;;;22.17;85.84
67457;BME280;54319;52.038;4.640;2023-07-09T01:47:10;101798.09;;;22.14;85.80
67457;BME280;54319;52.038;4.640;2023-07-09T01:49:37;101795.00;;;22.10;86.04
67457;BME280;54319;52.038;4.640;2023-07-09T01:52:06;101781.34;;;21.98;86.44
67457;BME280;54319;52.038;4.640;2023-07-09T01:54:35;101793.31;;;22.04;86.71
67457;BME280;54319;52.038;4.640;2023-07-09T01:57:21;101795.22;;;21.98;86.95
67457;BME280;54319;52.038;4.640;2023-07-09T01:59:49;101803.25;;;21.94;87.19
67457;BME280;54319;52.038;4.640;2023-07-09T02:02:16;101801.25;;;21.90;87.20
67457;BME280;54319;52.038;4.640;2023-07-09T02:04:49;101803.47;;;21.88;87.82
67457;BME280;54319;52.038;4.640;2023-07-09T02:07:17;101789.00;;;21.86;87.36
67457;BME280;54319;52.038;4.640;2023-07-09T02:09:45;101792.28;;;21.77;88.05
67457;BME280;54319;52.038;4.640;2023-07-09T02:12:13;101790.31;;;21.78;88.67
67457;BME280;54319;52.038;4.640;2023-07-09T02:14:41;101789.47;;;21.72;88.84
67457;BME280;54319;52.038;4.640;2023-07-09T02:17:09;101787.47;;;21.67;89.38
67457;BME280;54319;52.038;4.640;2023-07-09T02:19:36;101788.84;;;21.65;89.52
67457;BME280;54319;52.038;4.640;2023-07-09T02:22:03;101797.69;;;21.62;90.00
67457;BME280;54319;52.038;4.640;2023-07-09T02:24:30;101787.94;;;21.59;90.56
67457;BME280;54319;52.038;4.640;2023-07-09T02:27:00;101792.72;;;21.64;89.96
67457;BME280;54319;52.038;4.640;2023-07-09T02:29:29;101789.84;;;21.59;90.22
67457;BME280;54319;52.038;4.640;2023-07-09T02:31:57;101789.59;;;21.60;90.08
67457;BME280;54319;52.038;4.640;2023-07-09T02:34:24;101785.41;;;21.58;90.54
67457;BME280;54319;52.038;4.640;2023-07-09T02:36:52;101775.34;;;21.51;91.04
67457;BME280;54319;52.038;4.640;2023-07-09T02:39:19;101790.09;;;21.52;91.24
67457;BME280;54319;52.038;4.640;2023-07-09T02:41:46;101769.66;;;21.36;91.30
67457;BME280;54319;52.038;4.640;2023-07-09T02:44:14;101786.63;;;21.39;91.71
67457;BME280;54319;52.038;4.640;2023-07-09T02:46:41;101783.28;;;21.37;91.96
67457;BME280;54319;52.038;4.640;2023-07-09T02:49:10;101785.47;;;21.35;91.84
67457;BME280;54319;52.038;4.640;2023-07-09T02:51:37;101785.19;;;21.32;92.86
67457;BME280;54319;52.038;4.640;2023-07-09T02:54:04;101787.63;;;21.28;92.55
67457;BME280;54319;52.038;4.640;2023-07-09T02:56:30;101790.63;;;21.21;92.93
67457;BME280;54319;52.038;4.640;2023-07-09T02:58:58;101786.44;;;21.19;92.54
67457;BME280;54319;52.038;4.640;2023-07-09T03:01:26;101782.22;;;21.16;92.63
67457;BME280;54319;52.038;4.640;2023-07-09T03:03:53;101784.75;;;21.18;93.42
67457;BME280;54319;52.038;4.640;2023-07-09T03:06:21;101786.97;;;21.16;94.00
67457;BME280;54319;52.038;4.640;2023-07-09T03:08:48;101782.50;;;21.15;94.19
67457;BME280;54319;52.038;4.640;2023-07-09T03:11:15;101787.47;;;21.13;95.11
67457;BME280;54319;52.038;4.640;2023-07-09T03:13:42;101792.69;;;21.09;94.79
67457;BME280;54319;52.038;4.640;2023-07-09T03:16:09;101787.69;;;21.06;95.43
67457;BME280;54319;52.038;4.640;2023-07-09T03:18:37;101796.47;;;20.98;96.11
67457;BME280;54319;52.038;4.640;2023-07-09T03:21:04;101794.78;;;20.96;94.82
67457;BME280;54319;52.038;4.640;2023-07-09T03:23:30;101797.00;;;20.94;94.68
67457;BME280;54319;52.038;4.640;2023-07-09T03:25:57;101789.72;;;20.88;94.89
67457;BME280;54319;52.038;4.640;2023-07-09T03:28:25;101795.81;;;20.90;94.86
67457;BME280;54319;52.038;4.640;2023-07-09T03:30:54;101795.81;;;20.90;94.82
67457;BME280;54319;52.038;4.640;2023-07-09T03:33:22;101795.81;;;20.90;94.99
67457;BME280;54319;52.038;4.640;2023-07-09T03:35:50;101803.06;;;20.91;96.21
67457;BME280;54319;52.038;4.640;2023-07-09T03:38:18;101797.81;;;20.95;95.23
67457;BME280;54319;52.038;4.640;2023-07-09T03:40:44;101790.53;;;20.89;95.97
67457;BME280;54319;52.038;4.640;2023-07-09T03:43:11;101813.41;;;21.01;96.33
67457;BME280;54319;52.038;4.640;2023-07-09T03:45:38;101787.75;;;20.89;97.09
67457;BME280;54319;52.038;4.640;2023-07-09T03:48:05;101803.16;;;21.02;97.24
67457;BME280;54319;52.038;4.640;2023-07-09T03:50:32;101797.09;;;21.05;97.03
67457;BME280;54319;52.038;4.640;2023-07-09T03:53:00;101816.03;;;21.13;96.65
67457;BME280;54319;52.038;4.640;2023-07-09T03:55:27;101820.81;;;21.18;97.00
67457;BME280;54319;52.038;4.640;2023-07-09T03:57:53;101769.44;;;20.88;97.40
67457;BME280;54319;52.038;4.640;2023-07-09T04:00:21;101820.25;;;21.16;97.10
67457;BME280;54319;52.038;4.640;2023-07-09T04:02:50;101819.44;;;21.20;97.18
67457;BME280;54319;52.038;4.640;2023-07-09T04:05:17;101810.56;;;21.18;96.56
67457;BME280;54319;52.038;4.640;2023-07-09T04:07:44;101812.84;;;21.21;96.56
67457;BME280;54319;52.038;4.640;2023-07-09T04:10:13;101798.88;;;21.16;96.88
67457;BME280;54319;52.038;4.640;2023-07-09T04:12:40;101800.88;;;21.21;97.03
67457;BME280;54319;52.038;4.640;2023-07-09T04:15:08;101801.22;;;21.24;96.35
67457;BME280;54319;52.038;4.640;2023-07-09T04:17:35;101793.91;;;21.18;96.51
67457;BME280;54319;52.038;4.640;2023-07-09T04:20:02;101810.06;;;21.21;96.83
67457;BME280;54319;52.038;4.640;2023-07-09T04:22:31;101795.53;;;21.14;96.84
67457;BME280;54319;52.038;4.640;2023-07-09T04:24:58;101796.44;;;21.20;96.73
67457;BME280;54319;52.038;4.640;2023-07-09T04:27:26;101791.06;;;21.13;96.95
67457;BME280;54319;52.038;4.640;2023-07-09T04:29:53;101799.19;;;21.20;96.70
67457;BME280;54319;52.038;4.640;2023-07-09T04:32:20;101808.97;;;21.22;96.96
67457;BME280;54319;52.038;4.640;2023-07-09T04:34:47;101792.50;;;21.16;96.66
67457;BME280;54319;52.038;4.640;2023-07-09T04:37:14;101805.31;;;21.22;97.04
67457;BME280;54319;52.038;4.640;2023-07-09T04:39:42;101802.03;;;21.25;96.71
67457;BME280;54319;52.038;4.640;2023-07-09T04:42:11;101800.94;;;21.26;96.67
67457;BME280;54319;52.038;4.640;2023-07-09T04:44:39;101808.16;;;21.27;96.80
67457;BME280;54319;52.038;4.640;2023-07-09T04:47:06;101781.66;;;21.14;97.32
67457;BME280;54319;52.038;4.640;2023-07-09T04:49:33;101810.09;;;21.27;96.89
67457;BME280;54319;52.038;4.640;2023-07-09T04:52:00;101809.78;;;21.23;96.96
67457;BME280;54319;52.038;4.640;2023-07-09T04:54:27;101808.34;;;21.20;95.90
67457;BME280;54319;52.038;4.640;2023-07-09T04:56:54;101817.31;;;21.28;96.55
67457;BME280;54319;52.038;4.640;2023-07-09T04:59:21;101826.84;;;21.37;96.72
67457;BME280;54319;52.038;4.640;2023-07-09T05:01:50;101826.84;;;21.37;96.72
67457;BME280;54319;52.038;4.640;2023-07-09T05:04:16;101822.13;;;21.37;97.04
67457;BME280;54319;52.038;4.640;2023-07-09T05:06:43;101815.44;;;21.33;96.92
67457;BME280;54319;52.038;4.640;2023-07-09T05:09:10;101813.56;;;21.39;97.40
67457;BME280;54319;52.038;4.640;2023-07-09T05:11:36;101831.03;;;21.39;97.27
67457;BME280;54319;52.038;4.640;2023-07-09T05:14:03;101817.69;;;21.36;97.24
67457;BME280;54319;52.038;4.640;2023-07-09T05:16:30;101824.59;;;21.34;97.77
67457;BME280;54319;52.038;4.640;2023-07-09T05:18:58;101830.22;;;21.39;97.17
67457;BME280;54319;52.038;4.640;2023-07-09T05:21:25;101831.09;;;21.45;97.57
67457;BME280;54319;52.038;4.640;2023-07-09T05:23:51;101829.19;;;21.50;96.91
67457;BME280;54319;52.038;4.640;2023-07-09T05:26:18;101830.91;;;21.57;96.84
67457;BME280;54319;52.038;4.640;2023-07-09T05:28:44;101831.81;;;21.62;96.86
67457;BME280;54319;52.038;4.640;2023-07-09T05:31:11;101833.31;;;21.70;96.00
67457;BME280;54319;52.038;4.640;2023-07-09T05:33:38;101838.94;;;21.80;95.91
67457;BME280;54319;52.038;4.640;2023-07-09T05:36:06;101850.16;;;21.91;95.96
67457;BME280;54319;52.038;4.640;2023-07-09T05:38:33;101821.75;;;21.83;95.52
67457;BME280;54319;52.038;4.640;2023-07-09T05:41:00;101829.41;;;22.04;95.31
67457;BME280;54319;52.038;4.640;2023-07-09T05:43:29;101833.91;;;22.10;96.28
67457;BME280;54319;52.038;4.640;2023-07-09T05:45:56;101819.69;;;22.01;96.57
67457;BME280;54319;52.038;4.640;2023-07-09T05:48:23;101830.88;;;22.11;96.51
67457;BME280;54319;52.038;4.640;2023-07-09T05:50:53;101835.91;;;22.15;95.80
67457;BME280;54319;52.038;4.640;2023-07-09T05:53:22;101833.47;;;22.23;95.41
67457;BME280;54319;52.038;4.640;2023-07-09T05:55:52;101845.78;;;22.38;95.33
67457;BME280;54319;52.038;4.640;2023-07-09T05:58:19;101845.56;;;22.45;94.43
67457;BME280;54319;52.038;4.640;2023-07-09T06:00:49;101839.47;;;22.48;92.98
67457;BME280;54319;52.038;4.640;2023-07-09T06:03:17;101841.22;;;22.59;93.15
67457;BME280;54319;52.038;4.640;2023-07-09T06:05:44;101840.44;;;22.69;92.07
67457;BME280;54319;52.038;4.640;2023-07-09T06:08:11;101840.75;;;22.78;91.66
67457;BME280;54319;52.038;4.640;2023-07-09T06:10:49;101843.00;;;22.86;90.79
67457;BME280;54319;52.038;4.640;2023-07-09T06:13:16;101843.59;;;22.93;89.76
67457;BME280;54319;52.038;4.640;2023-07-09T06:15:43;101848.63;;;23.02;89.36
67457;BME280;54319;52.038;4.640;2023-07-09T06:18:10;101845.84;;;23.07;87.62
67457;BME280;54319;52.038;4.640;2023-07-09T06:20:38;101853.97;;;23.13;86.59
67457;BME280;54319;52.038;4.640;2023-07-09T06:23:04;101861.53;;;23.23;85.85
67457;BME280;54319;52.038;4.640;2023-07-09T06:25:31;101868.81;;;23.30;84.62
67457;BME280;54319;52.038;4.640;2023-07-09T06:28:00;101858.53;;;23.35;83.68
67457;BME280;54319;52.038;4.640;2023-07-09T06:30:27;101869.69;;;23.46;83.86
67457;BME280;54319;52.038;4.640;2023-07-09T06:32:54;101868.56;;;23.52;83.11
67457;BME280;54319;52.038;4.640;2023-07-09T06:35:20;101821.47;;;23.30;81.87
67457;BME280;54319;52.038;4.640;2023-07-09T06:37:47;101872.47;;;23.61;80.65
67457;BME280;54319;52.038;4.640;2023-07-09T06:40:14;101875.56;;;23.65;80.94
67457;BME280;54319;52.038;4.640;2023-07-09T06:42:42;101871.66;;;23.66;80.56
67457;BME280;54319;52.038;4.640;2023-07-09T06:45:10;101892.03;;;23.77;79.08
67457;BME280;54319;52.038;4.640;2023-07-09T06:47:37;101900.38;;;23.82;79.32
67457;BME280;54319;52.038;4.640;2023-07-09T06:50:04;101899.53;;;23.81;79.87
67457;BME280;54319;52.038;4.640;2023-07-09T06:52:31;101886.72;;;23.70;78.86
67457;BME280;54319;52.038;4.640;2023-07-09T06:54:57;101886.44;;;23.87;79.51
67457;BME280;54319;52.038;4.640;2023-07-09T06:57:24;101896.78;;;23.92;78.73
67457;BME280;54319;52.038;4.640;2023-07-09T06:59:51;101895.09;;;23.91;79.07
67457;BME280;54319;52.038;4.640;2023-07-09T07:02:19;101906.81;;;23.98;79.12
67457;BME280;54319;52.038;4.640;2023-07-09T07:04:45;101912.94;;;23.95;79.83
67457;BME280;54319;52.038;4.640;2023-07-09T07:07:12;101905.97;;;23.92;79.85
67457;BME280;54319;52.038;4.640;2023-07-09T07:09:38;101916.31;;;24.07;79.88
67457;BME280;54319;52.038;4.640;2023-07-09T07:12:06;101914.06;;;24.14;77.50
67457;BME280;54319;52.038;4.640;2023-07-09T07:14:33;101906.81;;;24.13;78.03
67457;BME280;54319;52.038;4.640;2023-07-09T07:17:00;101912.41;;;24.24;72.43
67457;BME280;54319;52.038;4.640;2023-07-09T07:19:28;101905.44;;;24.21;66.63
67457;BME280;54319;52.038;4.640;2023-07-09T07:21:54;101910.19;;;24.36;65.84
67457;BME280;54319;52.038;4.640;2023-07-09T07:24:21;101903.44;;;24.53;66.57
67457;BME280;54319;52.038;4.640;2023-07-09T07:26:47;101903.69;;;24.67;66.76
67457;BME280;54319;52.038;4.640;2023-07-09T07:29:14;101901.75;;;24.83;67.65
67457;BME280;54319;52.038;4.640;2023-07-09T07:31:41;101904.78;;;24.92;68.57
67457;BME280;54319;52.038;4.640;2023-07-09T07:34:07;101897.19;;;25.08;69.44
67457;BME280;54319;52.038;4.640;2023-07-09T07:36:35;101893.22;;;25.19;67.84
67457;BME280;54319;52.038;4.640;2023-07-09T07:39:02;101881.16;;;25.34;67.97
67457;BME280;54319;52.038;4.640;2023-07-09T07:41:29;101874.72;;;25.39;66.51
67457;BME280;54319;52.038;4.640;2023-07-09T07:43:55;101875.44;;;25.55;64.26
67457;BME280;54319;52.038;4.640;2023-07-09T07:46:22;101866.84;;;25.51;63.25
67457;BME280;54319;52.038;4.640;2023-07-09T07:48:48;101868.69;;;25.66;62.49
67457;BME280;54319;52.038;4.640;2023-07-09T07:51:15;101878.63;;;25.83;61.49
67457;BME280;54319;52.038;4.640;2023-07-09T07:53:43;101868.19;;;25.94;62.56
67457;BME280;54319;52.038;4.640;2023-07-09T07:56:10;101865.31;;;26.04;61.43
67457;BME280;54319;52.038;4.640;2023-07-09T07:58:37;101868.03;;;26.09;61.08
67457;BME280;54319;52.038;4.640;2023-07-09T08:01:03;101866.78;;;26.31;60.98
67457;BME280;54319;52.038;4.640;2023-07-09T08:03:30;101870.59;;;26.40;61.04
67457;BME280;54319;52.038;4.640;2023-07-09T08:05:56;101885.69;;;26.39;60.38
67457;BME280;54319;52.038;4.640;2023-07-09T08:08:23;101875.53;;;26.49;59.59
67457;BME280;54319;52.038;4.640;2023-07-09T08:10:51;101882.75;;;26.55;61.14
67457;BME280;54319;52.038;4.640;2023-07-09T08:13:18;101853.81;;;26.65;60.58
67457;BME280;54319;52.038;4.640;2023-07-09T08:15:45;101869.38;;;27.00;60.17
67457;BME280;54319;52.038;4.640;2023-07-09T08:18:12;101866.97;;;27.13;58.26
67457;BME280;54319;52.038;4.640;2023-07-09T08:20:42;101864.59;;;26.77;58.37
67457;BME280;54319;52.038;4.640;2023-07-09T08:23:09;101857.84;;;26.78;58.69
67457;BME280;54319;52.038;4.640;2023-07-09T08:25:35;101862.78;;;26.91;57.20
67457;BME280;54319;52.038;4.640;2023-07-09T08:28:04;101869.91;;;26.78;58.12
67457;BME280;54319;52.038;4.640;2023-07-09T08:30:31;101870.50;;;26.75;57.59
67457;BME280;54319;52.038;4.640;2023-07-09T08:32:57;101863.72;;;26.57;58.05
67457;BME280;54319;52.038;4.640;2023-07-09T08:35:24;101864.19;;;26.64;58.41
67457;BME280;54319;52.038;4.640;2023-07-09T08:37:51;101868.13;;;26.63;58.60
67457;BME280;54319;52.038;4.640;2023-07-09T08:40:18;101854.34;;;26.67;58.33
67457;BME280;54319;52.038;4.640;2023-07-09T08:42:46;101857.25;;;26.56;59.42
67457;BME280;54319;52.038;4.640;2023-07-09T08:45:24;101853.00;;;26.64;61.12
67457;BME280;54319;52.038;4.640;2023-07-09T08:48:02;101858.09;;;26.81;60.80
67457;BME280;54319;52.038;4.640;2023-07-09T08:50:35;101868.28;;;27.21;58.42
67457;BME280;54319;52.038;4.640;2023-07-09T08:53:04;101865.56;;;27.73;58.02
67457;BME280;54319;52.038;4.640;2023-07-09T08:55:47;101859.38;;;28.09;56.37
67457;BME280;54319;52.038;4.640;2023-07-09T08:58:30;101867.94;;;27.99;55.00
67457;BME280;54319;52.038;4.640;2023-07-09T09:01:17;101870.94;;;27.69;54.46
67457;BME280;54319;52.038;4.640;2023-07-09T09:03:47;101878.75;;;27.53;56.45
67457;BME280;54319;52.038;4.640;2023-07-09T09:06:16;101880.22;;;27.51;56.15
67457;BME280;54319;52.038;4.640;2023-07-09T09:08:50;101890.38;;;27.41;55.74
67457;BME280;54319;52.038;4.640;2023-07-09T09:11:23;101905.09;;;27.52;56.34
67457;BME280;54319;52.038;4.640;2023-07-09T09:13:54;101900.19;;;27.63;57.56
67457;BME280;54319;52.038;4.640;2023-07-09T09:16:26;101904.91;;;27.68;55.29
67457;BME280;54319;52.038;4.640;2023-07-09T09:18:57;101889.41;;;27.90;55.59
67457;BME280;54319;52.038;4.640;2023-07-09T09:21:28;101895.97;;;27.99;55.01
67457;BME280;54319;52.038;4.640;2023-07-09T09:24:01;101884.00;;;28.12;55.32
67457;BME280;54319;52.038;4.640;2023-07-09T09:26:32;101885.00;;;28.36;54.01
67457;BME280;54319;52.038;4.640;2023-07-09T09:29:00;101892.09;;;28.61;54.89
67457;BME280;54319;52.038;4.640;2023-07-09T09:31:29;101900.00;;;28.73;55.12
67457;BME280;54319;52.038;4.640;2023-07-09T09:33:56;101878.88;;;28.75;54.48
67457;BME280;54319;52.038;4.640;2023-07-09T09:36:25;101877.84;;;28.71;53.31
67457;BME280;54319;52.038;4.640;2023-07-09T09:38:52;101866.50;;;28.77;54.19
67457;BME280;54319;52.038;4.640;2023-07-09T09:41:21;101879.03;;;28.84;53.09
67457;BME280;54319;52.038;4.640;2023-07-09T09:43:51;101881.63;;;28.95;52.31
67457;BME280;54319;52.038;4.640;2023-07-09T09:46:19;101875.81;;;28.91;53.20
67457;BME280;54319;52.038;4.640;2023-07-09T09:48:49;101873.19;;;29.09;52.20
67457;BME280;54319;52.038;4.640;2023-07-09T09:51:17;101869.75;;;29.12;52.29
67457;BME280;54319;52.038;4.640;2023-07-09T09:53:48;101866.09;;;29.25;50.89
67457;BME280;54319;52.038;4.640;2023-07-09T09:56:18;101890.94;;;29.46;50.94
67457;BME280;54319;52.038;4.640;2023-07-09T09:58:45;101858.84;;;29.47;51.37
67457;BME280;54319;52.038;4.640;2023-07-09T10:01:15;101858.38;;;29.68;51.30
67457;BME280;54319;52.038;4.640;2023-07-09T10:03:42;101863.09;;;29.81;50.40
67457;BME280;54319;52.038;4.640;2023-07-09T10:06:15;101852.16;;;29.57;49.72
67457;BME280;54319;52.038;4.640;2023-07-09T10:08:53;101868.09;;;29.62;49.76
67457;BME280;54319;52.038;4.640;2023-07-09T10:11:29;101861.97;;;29.59;49.00
67457;BME280;54319;52.038;4.640;2023-07-09T10:14:01;101872.94;;;29.70;49.73
67457;BME280;54319;52.038;4.640;2023-07-09T10:16:34;101891.00;;;29.55;49.96
67457;BME280;54319;52.038;4.640;2023-07-09T10:19:14;101888.13;;;29.46;50.80
67457;BME280;54319;52.038;4.640;2023-07-09T10:21:47;101883.94;;;29.57;50.48
67457;BME280;54319;52.038;4.640;2023-07-09T10:24:32;101884.84;;;29.67;52.28
67457;BME280;54319;52.038;4.640;2023-07-09T10:27:08;101886.53;;;29.54;51.30
67457;BME280;54319;52.038;4.640;2023-07-09T10:30:02;101873.53;;;29.81;51.83
67457;BME280;54319;52.038;4.640;2023-07-09T10:32:40;101867.25;;;30.07;51.79
67457;BME280;54319;52.038;4.640;2023-07-09T10:35:16;101860.31;;;30.04;49.89
67457;BME280;54319;52.038;4.640;2023-07-09T10:37:58;101871.09;;;30.11;51.05
67457;BME280;54319;52.038;4.640;2023-07-09T10:40:33;101855.63;;;30.22;50.21
67457;BME280;54319;52.038;4.640;2023-07-09T10:43:04;101868.69;;;30.58;51.19
67457;BME280;54319;52.038;4.640;2023-07-09T10:45:39;101859.09;;;30.59;49.06
67457;BME280;54319;52.038;4.640;2023-07-09T10:48:10;101868.00;;;30.93;50.13
67457;BME280;54319;52.038;4.640;2023-07-09T10:50:41;101882.94;;;31.02;49.96
67457;BME280;54319;52.038;4.640;2023-07-09T10:53:16;101904.81;;;30.97;48.69
67457;BME280;54319;52.038;4.640;2023-07-09T10:55:52;101924.81;;;30.86;47.10
67457;BME280;54319;52.038;4.640;2023-07-09T10:58:27;101916.69;;;30.85;48.43
67457;BME280;54319;52.038;4.640;2023-07-09T11:00:57;101917.78;;;30.66;48.83
67457;BME280;54319;52.038;4.640;2023-07-09T11:03:38;101899.97;;;30.57;48.89
67457;BME280;54319;52.038;4.640;2023-07-09T11:06:14;101893.84;;;30.55;49.30
67457;BME280;54319;52.038;4.640;2023-07-09T11:08:44;101906.22;;;30.45;48.84
67457;BME280;54319;52.038;4.640;2023-07-09T11:11:17;101914.72;;;30.54;49.97
67457;BME280;54319;52.038;4.640;2023-07-09T11:13:53;101900.38;;;30.64;47.63
67457;BME280;54319;52.038;4.640;2023-07-09T11:16:27;101907.75;;;30.51;48.29
67457;BME280;54319;52.038;4.640;2023-07-09T11:18:58;101902.38;;;30.32;48.55
67457;BME280;54319;52.038;4.640;2023-07-09T11:21:25;101900.91;;;30.12;49.69
67457;BME280;54319;52.038;4.640;2023-07-09T11:23:55;101902.59;;;30.22;49.27
67457;BME280;54319;52.038;4.640;2023-07-09T11:26:23;101904.69;;;30.07;49.53
67457;BME280;54319;52.038;4.640;2023-07-09T11:28:52;101919.72;;;29.88;49.58
67457;BME280;54319;52.038;4.640;2023-07-09T11:31:23;101915.19;;;29.79;50.23
67457;BME280;54319;52.038;4.640;2023-07-09T11:34:01;101913.06;;;29.62;50.27
67457;BME280;54319;52.038;4.640;2023-07-09T11:36:30;101917.84;;;29.61;50.16
67457;BME280;54319;52.038;4.640;2023-07-09T11:38:58;101908.09;;;29.58;49.87
67457;BME280;54319;52.038;4.640;2023-07-09T11:41:28;101925.34;;;29.66;49.83
67457;BME280;54319;52.038;4.640;2023-07-09T11:44:09;101935.69;;;29.56;50.18
67457;BME280;54319;52.038;4.640;2023-07-09T11:46:50;101949.75;;;29.79;49.98
67457;BME280;54319;52.038;4.640;2023-07-09T11:49:21;101924.38;;;29.70;50.55
67457;BME280;54319;52.038;4.640;2023-07-09T11:51:53;101943.63;;;29.77;50.55
67457;BME280;54319;52.038;4.640;2023-07-09T11:54:22;101962.53;;;29.85;49.30
67457;BME280;54319;52.038;4.640;2023-07-09T11:56:56;101952.16;;;29.86;48.87
67457;BME280;54319;52.038;4.640;2023-07-09T11:59:23;101981.34;;;29.76;49.29
67457;BME280;54319;52.038;4.640;2023-07-09T12:01:51;101977.91;;;29.65;48.35
67457;BME280;54319;52.038;4.640;2023-07-09T12:04:21;101973.78;;;29.63;49.66
67457;BME280;54319;52.038;4.640;2023-07-09T12:06:50;101979.50;;;29.57;49.83
67457;BME280;54319;52.038;4.640;2023-07-09T12:09:20;101977.09;;;29.65;49.01
67457;BME280;54319;52.038;4.640;2023-07-09T12:11:50;101967.16;;;29.44;48.47
67457;BME280;54319;52.038;4.640;2023-07-09T12:14:20;101978.88;;;29.18;50.07
67457;BME280;54319;52.038;4.640;2023-07-09T12:16:48;101958.78;;;28.83;49.06
67457;BME280;54319;52.038;4.640;2023-07-09T12:19:18;101981.63;;;28.63;51.40
67457;BME280;54319;52.038;4.640;2023-07-09T12:21:46;101972.94;;;28.45;51.77
67457;BME280;54319;52.038;4.640;2023-07-09T12:24:19;101971.97;;;28.36;51.79
67457;BME280;54319;52.038;4.640;2023-07-09T12:26:51;101995.03;;;28.33;52.10
67457;BME280;54319;52.038;4.640;2023-07-09T12:29:18;101992.81;;;28.49;52.06
67457;BME280;54319;52.038;4.640;2023-07-09T12:31:45;102001.13;;;28.54;52.03
67457;BME280;54319;52.038;4.640;2023-07-09T12:34:13;101985.88;;;28.27;52.91
67457;BME280;54319;52.038;4.640;2023-07-09T12:36:44;101942.22;;;27.82;54.28
67457;BME280;54319;52.038;4.640;2023-07-09T12:39:12;101969.03;;;27.88;54.42
67457;BME280;54319;52.038;4.640;2023-07-09T12:41:42;101959.25;;;27.23;57.17
67457;BME280;54319;52.038;4.640;2023-07-09T12:44:19;101959.97;;;26.56;58.51
67457;BME280;54319;52.038;4.640;2023-07-09T12:46:48;101974.09;;;26.00;60.17
67457;BME280;54319;52.038;4.640;2023-07-09T12:49:21;101976.25;;;25.64;62.02
67457;BME280;54319;52.038;4.640;2023-07-09T12:51:48;101989.75;;;25.36;63.19
67457;BME280;54319;52.038;4.640;2023-07-09T12:54:17;101993.19;;;25.17;63.82
67457;BME280;54319;52.038;4.640;2023-07-09T12:56:44;101996.56;;;25.09;65.02
67457;BME280;54319;52.038;4.640;2023-07-09T12:59:20;101987.09;;;24.94;65.39
67457;BME280;54319;52.038;4.640;2023-07-09T13:01:54;101982.09;;;25.02;65.66